Archival Weather

Murmansk

Murmansk, Russia (ULMM)

Report from: Thursday, April 25, 2024 12:30 AM MSK
Current time: Saturday, June 22, 2024 2:58 AM MSK

Current weather – Weather history – Daily summaries
Weather forecast

Temperature-1.0°C (30.2°F)
Wind chill-5.5°C (22.1°F)
Dew point-1.0°C (30.2°F)
Winds 7.8 kts (4 m/s, 8.9 mph) Southeast (140°)
Visibility6.2 mi. (10 km)
Clouds Ceiling: Broken clouds with cumulonimbus 1,600 ft. (488 m)
Altimeter29.94 in.Hg (1014 mB)
Precip. events QF 8:34 AM
Relative humidity100 %
Density altitude-1,900 ft. (-579 m)
Remarks No significant changes expected in the next two hours
Flight conditions Marginal Visual Meteorological Conditions
Raw dataULMM 242130Z 14004MPS 9999 BKN016CB M01/M01 Q1014 R13/690149 NOSIG RMK QFE754
An error has occurred. This application may no longer respond until reloaded. Reload 🗙